Terminal Aerodrome Forecast
Issued by NWS

Home | Current Version | Previous Version | Text Only | Print | Product List | Glossary On
Versions: 1 2 3 4 5 6 7 8 9 10 11 12 13 14 15 16 17 18 19 20 21 22 23 24 25 26 27 28 29 30 31 32 33 34 35 36
000
FTUS45 KBOU 022348 AAA
TAFBJC
TAF AMD
KBJC 022348Z 0300/0324 13010KT P6SM SCT070 OVC140
     FM030300 23008KT P6SM SCT080 BKN130
     FM030500 30006KT P6SM FEW090 SCT140 BKN200
     FM031000 29008KT P6SM FEW120 SCT130
     FM031700 08007KT P6SM SCT100 BKN200
     FM032100 14008KT P6SM VCTS SCT080CB BKN120=

USA.gov is the U.S. government's official web portal to all federal, state and local government web resources and services.